sensor_id;sensor_type;location;lat;lon;timestamp;P1;durP1;ratioP1;P2;durP2;ratioP2
23290;SDS011;11814;44.686;10.842;2023-09-12T00:00:55;22.65;;;19.60;;
23290;SDS011;11814;44.686;10.842;2023-09-12T00:03:22;22.67;;;18.23;;
23290;SDS011;11814;44.686;10.842;2023-09-12T00:05:55;22.98;;;18.75;;
23290;SDS011;11814;44.686;10.842;2023-09-12T00:08:22;28.20;;;19.77;;
23290;SDS011;11814;44.686;10.842;2023-09-12T00:10:58;20.50;;;18.40;;
23290;SDS011;11814;44.686;10.842;2023-09-12T00:13:28;23.33;;;18.50;;
23290;SDS011;11814;44.686;10.842;2023-09-12T00:15:54;20.67;;;17.13;;
23290;SDS011;11814;44.686;10.842;2023-09-12T00:18:19;19.23;;;16.73;;
23290;SDS011;11814;44.686;10.842;2023-09-12T00:20:45;17.42;;;15.50;;
23290;SDS011;11814;44.686;10.842;2023-09-12T00:23:11;20.95;;;17.13;;
23290;SDS011;11814;44.686;10.842;2023-09-12T00:25:36;20.38;;;16.17;;
23290;SDS011;11814;44.686;10.842;2023-09-12T00:28:02;17.95;;;16.05;;
23290;SDS011;11814;44.686;10.842;2023-09-12T00:30:28;18.10;;;16.15;;
23290;SDS011;11814;44.686;10.842;2023-09-12T00:32:53;19.27;;;17.33;;
23290;SDS011;11814;44.686;10.842;2023-09-12T00:35:19;23.75;;;17.95;;
23290;SDS011;11814;44.686;10.842;2023-09-12T00:37:44;20.65;;;18.33;;
23290;SDS011;11814;44.686;10.842;2023-09-12T00:40:10;20.95;;;18.38;;
23290;SDS011;11814;44.686;10.842;2023-09-12T00:42:36;24.23;;;18.55;;
23290;SDS011;11814;44.686;10.842;2023-09-12T00:45:01;21.65;;;19.35;;
23290;SDS011;11814;44.686;10.842;2023-09-12T00:47:28;24.33;;;19.88;;
23290;SDS011;11814;44.686;10.842;2023-09-12T00:49:54;24.52;;;20.40;;
23290;SDS011;11814;44.686;10.842;2023-09-12T00:52:22;25.10;;;21.23;;
23290;SDS011;11814;44.686;10.842;2023-09-12T00:54:50;25.48;;;22.75;;
23290;SDS011;11814;44.686;10.842;2023-09-12T00:57:16;28.02;;;24.52;;
23290;SDS011;11814;44.686;10.842;2023-09-12T00:59:42;26.17;;;23.48;;
23290;SDS011;11814;44.686;10.842;2023-09-12T01:02:08;27.50;;;22.30;;
23290;SDS011;11814;44.686;10.842;2023-09-12T01:04:34;24.02;;;21.52;;
23290;SDS011;11814;44.686;10.842;2023-09-12T01:07:02;26.70;;;21.67;;
23290;SDS011;11814;44.686;10.842;2023-09-12T01:09:29;25.40;;;21.42;;
23290;SDS011;11814;44.686;10.842;2023-09-12T01:11:56;26.30;;;20.60;;
23290;SDS011;11814;44.686;10.842;2023-09-12T01:14:21;21.17;;;18.85;;
23290;SDS011;11814;44.686;10.842;2023-09-12T01:16:47;19.05;;;17.00;;
23290;SDS011;11814;44.686;10.842;2023-09-12T01:19:13;26.35;;;19.33;;
23290;SDS011;11814;44.686;10.842;2023-09-12T01:21:47;23.35;;;19.50;;
23290;SDS011;11814;44.686;10.842;2023-09-12T01:27:22;22.23;;;19.13;;
23290;SDS011;11814;44.686;10.842;2023-09-12T01:29:57;22.77;;;17.83;;
23290;SDS011;11814;44.686;10.842;2023-09-12T01:32:25;24.98;;;17.95;;
23290;SDS011;11814;44.686;10.842;2023-09-12T01:34:51;20.30;;;18.20;;
23290;SDS011;11814;44.686;10.842;2023-09-12T01:37:17;19.80;;;16.55;;
23290;SDS011;11814;44.686;10.842;2023-09-12T01:39:43;20.40;;;16.95;;
23290;SDS011;11814;44.686;10.842;2023-09-12T01:42:09;21.17;;;17.45;;
23290;SDS011;11814;44.686;10.842;2023-09-12T01:44:39;20.30;;;16.33;;
23290;SDS011;11814;44.686;10.842;2023-09-12T01:47:08;21.30;;;17.35;;
23290;SDS011;11814;44.686;10.842;2023-09-12T01:49:34;19.88;;;17.85;;
23290;SDS011;11814;44.686;10.842;2023-09-12T01:52:02;22.27;;;17.48;;
23290;SDS011;11814;44.686;10.842;2023-09-12T01:54:28;21.17;;;18.88;;
23290;SDS011;11814;44.686;10.842;2023-09-12T01:56:54;21.13;;;17.92;;
23290;SDS011;11814;44.686;10.842;2023-09-12T01:59:24;21.92;;;18.77;;
23290;SDS011;11814;44.686;10.842;2023-09-12T02:01:50;22.33;;;19.95;;
23290;SDS011;11814;44.686;10.842;2023-09-12T02:04:16;22.75;;;20.35;;
23290;SDS011;11814;44.686;10.842;2023-09-12T02:06:41;26.33;;;20.83;;
23290;SDS011;11814;44.686;10.842;2023-09-12T02:09:07;23.02;;;20.25;;
23290;SDS011;11814;44.686;10.842;2023-09-12T02:11:33;24.23;;;20.63;;
23290;SDS011;11814;44.686;10.842;2023-09-12T02:13:58;23.42;;;21.02;;
23290;SDS011;11814;44.686;10.842;2023-09-12T02:16:24;27.88;;;23.20;;
23290;SDS011;11814;44.686;10.842;2023-09-12T02:18:50;25.23;;;20.58;;
23290;SDS011;11814;44.686;10.842;2023-09-12T02:21:15;23.48;;;21.02;;
23290;SDS011;11814;44.686;10.842;2023-09-12T02:23:41;23.95;;;20.08;;
23290;SDS011;11814;44.686;10.842;2023-09-12T02:26:07;22.85;;;20.05;;
23290;SDS011;11814;44.686;10.842;2023-09-12T02:28:33;23.80;;;17.95;;
23290;SDS011;11814;44.686;10.842;2023-09-12T02:30:58;21.70;;;17.70;;
23290;SDS011;11814;44.686;10.842;2023-09-12T02:33:24;20.17;;;18.02;;
23290;SDS011;11814;44.686;10.842;2023-09-12T02:35:50;20.05;;;17.90;;
23290;SDS011;11814;44.686;10.842;2023-09-12T02:38:16;23.20;;;20.65;;
23290;SDS011;11814;44.686;10.842;2023-09-12T02:40:42;19.85;;;17.50;;
23290;SDS011;11814;44.686;10.842;2023-09-12T02:43:08;21.42;;;18.23;;
23290;SDS011;11814;44.686;10.842;2023-09-12T02:45:34;26.13;;;20.80;;
23290;SDS011;11814;44.686;10.842;2023-09-12T02:47:59;26.33;;;19.70;;
23290;SDS011;11814;44.686;10.842;2023-09-12T02:50:25;27.70;;;22.98;;
23290;SDS011;11814;44.686;10.842;2023-09-12T02:52:51;23.92;;;19.48;;
23290;SDS011;11814;44.686;10.842;2023-09-12T02:55:16;24.40;;;20.33;;
23290;SDS011;11814;44.686;10.842;2023-09-12T02:57:42;27.13;;;20.50;;
23290;SDS011;11814;44.686;10.842;2023-09-12T03:00:08;23.33;;;21.00;;
23290;SDS011;11814;44.686;10.842;2023-09-12T03:02:34;22.10;;;19.88;;
23290;SDS011;11814;44.686;10.842;2023-09-12T03:05:00;23.48;;;21.15;;
23290;SDS011;11814;44.686;10.842;2023-09-12T03:07:29;28.80;;;22.95;;
23290;SDS011;11814;44.686;10.842;2023-09-12T03:09:55;25.02;;;22.42;;
23290;SDS011;11814;44.686;10.842;2023-09-12T03:12:22;34.00;;;23.42;;
23290;SDS011;11814;44.686;10.842;2023-09-12T03:14:47;27.13;;;24.23;;
23290;SDS011;11814;44.686;10.842;2023-09-12T03:17:13;28.08;;;24.63;;
23290;SDS011;11814;44.686;10.842;2023-09-12T03:19:38;28.42;;;23.50;;
23290;SDS011;11814;44.686;10.842;2023-09-12T03:22:04;27.35;;;24.13;;
23290;SDS011;11814;44.686;10.842;2023-09-12T03:24:30;27.15;;;23.23;;
23290;SDS011;11814;44.686;10.842;2023-09-12T03:26:56;26.75;;;23.95;;
23290;SDS011;11814;44.686;10.842;2023-09-12T03:29:21;27.00;;;23.63;;
23290;SDS011;11814;44.686;10.842;2023-09-12T03:31:48;27.88;;;24.92;;
23290;SDS011;11814;44.686;10.842;2023-09-12T03:34:13;29.48;;;22.05;;
23290;SDS011;11814;44.686;10.842;2023-09-12T03:36:39;26.58;;;22.80;;
23290;SDS011;11814;44.686;10.842;2023-09-12T03:39:05;25.10;;;22.17;;
23290;SDS011;11814;44.686;10.842;2023-09-12T03:41:33;27.67;;;23.73;;
23290;SDS011;11814;44.686;10.842;2023-09-12T03:43:59;28.10;;;22.55;;
23290;SDS011;11814;44.686;10.842;2023-09-12T03:46:25;27.30;;;22.92;;
23290;SDS011;11814;44.686;10.842;2023-09-12T03:48:51;26.38;;;23.05;;
23290;SDS011;11814;44.686;10.842;2023-09-12T03:51:17;26.73;;;24.02;;
23290;SDS011;11814;44.686;10.842;2023-09-12T03:53:42;30.73;;;24.30;;
23290;SDS011;11814;44.686;10.842;2023-09-12T03:56:08;27.10;;;23.08;;
23290;SDS011;11814;44.686;10.842;2023-09-12T03:58:37;25.75;;;23.02;;
23290;SDS011;11814;44.686;10.842;2023-09-12T04:01:03;30.98;;;23.90;;
23290;SDS011;11814;44.686;10.842;2023-09-12T04:03:29;28.65;;;24.30;;
23290;SDS011;11814;44.686;10.842;2023-09-12T04:05:55;32.38;;;25.40;;
23290;SDS011;11814;44.686;10.842;2023-09-12T04:08:20;29.48;;;26.45;;
23290;SDS011;11814;44.686;10.842;2023-09-12T04:10:46;28.17;;;25.25;;
23290;SDS011;11814;44.686;10.842;2023-09-12T04:13:12;30.08;;;26.95;;
23290;SDS011;11814;44.686;10.842;2023-09-12T04:15:37;31.27;;;27.98;;
23290;SDS011;11814;44.686;10.842;2023-09-12T04:18:03;30.23;;;27.13;;
23290;SDS011;11814;44.686;10.842;2023-09-12T04:20:29;31.80;;;28.42;;
23290;SDS011;11814;44.686;10.842;2023-09-12T04:22:55;32.65;;;29.20;;
23290;SDS011;11814;44.686;10.842;2023-09-12T04:25:20;33.95;;;29.63;;
23290;SDS011;11814;44.686;10.842;2023-09-12T04:27:46;34.60;;;31.00;;
23290;SDS011;11814;44.686;10.842;2023-09-12T04:30:12;37.92;;;33.83;;
23290;SDS011;11814;44.686;10.842;2023-09-12T04:32:38;39.20;;;32.38;;
23290;SDS011;11814;44.686;10.842;2023-09-12T04:35:04;37.50;;;33.38;;
23290;SDS011;11814;44.686;10.842;2023-09-12T04:37:29;36.50;;;32.67;;
23290;SDS011;11814;44.686;10.842;2023-09-12T04:39:55;36.53;;;31.35;;
23290;SDS011;11814;44.686;10.842;2023-09-12T04:42:22;37.17;;;33.15;;
23290;SDS011;11814;44.686;10.842;2023-09-12T04:44:47;37.75;;;33.85;;
23290;SDS011;11814;44.686;10.842;2023-09-12T04:47:13;39.60;;;34.35;;
23290;SDS011;11814;44.686;10.842;2023-09-12T04:49:39;41.50;;;34.55;;
23290;SDS011;11814;44.686;10.842;2023-09-12T04:52:05;35.78;;;32.10;;
23290;SDS011;11814;44.686;10.842;2023-09-12T04:54:31;36.88;;;32.92;;
23290;SDS011;11814;44.686;10.842;2023-09-12T04:56:57;34.45;;;30.50;;
23290;SDS011;11814;44.686;10.842;2023-09-12T04:59:22;31.50;;;28.17;;
23290;SDS011;11814;44.686;10.842;2023-09-12T05:01:48;32.80;;;29.25;;
23290;SDS011;11814;44.686;10.842;2023-09-12T05:04:14;32.17;;;28.58;;
23290;SDS011;11814;44.686;10.842;2023-09-12T05:06:40;33.47;;;29.88;;
23290;SDS011;11814;44.686;10.842;2023-09-12T05:09:05;33.40;;;29.30;;
23290;SDS011;11814;44.686;10.842;2023-09-12T05:11:34;34.67;;;30.30;;
23290;SDS011;11814;44.686;10.842;2023-09-12T05:14:00;36.75;;;30.20;;
23290;SDS011;11814;44.686;10.842;2023-09-12T05:16:28;34.53;;;29.05;;
23290;SDS011;11814;44.686;10.842;2023-09-12T05:18:54;37.38;;;29.65;;
23290;SDS011;11814;44.686;10.842;2023-09-12T05:21:20;35.60;;;28.00;;
23290;SDS011;11814;44.686;10.842;2023-09-12T05:23:45;32.40;;;29.02;;
23290;SDS011;11814;44.686;10.842;2023-09-12T05:26:11;33.20;;;28.08;;
23290;SDS011;11814;44.686;10.842;2023-09-12T05:28:37;34.80;;;27.52;;
23290;SDS011;11814;44.686;10.842;2023-09-12T05:31:02;31.85;;;27.05;;
23290;SDS011;11814;44.686;10.842;2023-09-12T05:33:28;36.00;;;27.65;;
23290;SDS011;11814;44.686;10.842;2023-09-12T05:35:54;36.65;;;29.35;;
23290;SDS011;11814;44.686;10.842;2023-09-12T05:38:19;36.30;;;29.60;;
23290;SDS011;11814;44.686;10.842;2023-09-12T05:40:45;35.15;;;29.35;;
23290;SDS011;11814;44.686;10.842;2023-09-12T05:43:11;32.42;;;27.02;;
23290;SDS011;11814;44.686;10.842;2023-09-12T05:45:37;32.35;;;26.10;;
23290;SDS011;11814;44.686;10.842;2023-09-12T05:48:03;31.42;;;26.80;;
23290;SDS011;11814;44.686;10.842;2023-09-12T05:50:29;34.38;;;27.05;;
23290;SDS011;11814;44.686;10.842;2023-09-12T05:52:55;32.60;;;25.60;;
23290;SDS011;11814;44.686;10.842;2023-09-12T05:55:20;30.17;;;26.73;;
23290;SDS011;11814;44.686;10.842;2023-09-12T05:57:47;33.85;;;30.00;;
23290;SDS011;11814;44.686;10.842;2023-09-12T06:00:17;36.40;;;30.35;;
23290;SDS011;11814;44.686;10.842;2023-09-12T06:02:43;31.80;;;28.30;;
23290;SDS011;11814;44.686;10.842;2023-09-12T06:05:08;30.98;;;27.60;;
23290;SDS011;11814;44.686;10.842;2023-09-12T06:07:34;30.88;;;27.73;;
23290;SDS011;11814;44.686;10.842;2023-09-12T06:10:00;31.17;;;26.80;;
23290;SDS011;11814;44.686;10.842;2023-09-12T06:12:26;32.80;;;27.83;;
23290;SDS011;11814;44.686;10.842;2023-09-12T06:14:52;33.90;;;28.02;;
23290;SDS011;11814;44.686;10.842;2023-09-12T06:17:21;34.17;;;27.48;;
23290;SDS011;11814;44.686;10.842;2023-09-12T06:19:47;30.63;;;26.58;;
23290;SDS011;11814;44.686;10.842;2023-09-12T06:22:14;30.70;;;26.58;;
23290;SDS011;11814;44.686;10.842;2023-09-12T06:24:42;29.45;;;23.17;;
23290;SDS011;11814;44.686;10.842;2023-09-12T06:27:08;26.92;;;22.67;;
23290;SDS011;11814;44.686;10.842;2023-09-12T06:29:34;27.50;;;19.35;;
23290;SDS011;11814;44.686;10.842;2023-09-12T06:32:00;19.20;;;17.25;;
23290;SDS011;11814;44.686;10.842;2023-09-12T06:34:27;17.90;;;16.13;;
23290;SDS011;11814;44.686;10.842;2023-09-12T06:36:53;19.77;;;17.73;;
23290;SDS011;11814;44.686;10.842;2023-09-12T06:39:18;21.63;;;17.90;;
23290;SDS011;11814;44.686;10.842;2023-09-12T06:41:44;20.83;;;18.33;;
23290;SDS011;11814;44.686;10.842;2023-09-12T06:44:10;22.70;;;17.88;;
23290;SDS011;11814;44.686;10.842;2023-09-12T06:46:36;19.85;;;16.55;;
23290;SDS011;11814;44.686;10.842;2023-09-12T06:49:02;18.67;;;15.88;;
23290;SDS011;11814;44.686;10.842;2023-09-12T06:51:28;18.67;;;14.75;;
23290;SDS011;11814;44.686;10.842;2023-09-12T06:53:54;14.95;;;13.50;;
23290;SDS011;11814;44.686;10.842;2023-09-12T06:56:20;16.70;;;14.95;;
23290;SDS011;11814;44.686;10.842;2023-09-12T06:58:47;40.88;;;20.52;;
23290;SDS011;11814;44.686;10.842;2023-09-12T07:01:13;24.20;;;16.98;;
23290;SDS011;11814;44.686;10.842;2023-09-12T07:03:39;18.10;;;15.07;;
23290;SDS011;11814;44.686;10.842;2023-09-12T07:06:04;19.13;;;15.23;;
23290;SDS011;11814;44.686;10.842;2023-09-12T07:08:30;17.65;;;15.77;;
23290;SDS011;11814;44.686;10.842;2023-09-12T07:10:57;19.23;;;16.48;;
23290;SDS011;11814;44.686;10.842;2023-09-12T07:13:24;21.33;;;16.23;;
23290;SDS011;11814;44.686;10.842;2023-09-12T07:15:50;21.65;;;17.70;;
23290;SDS011;11814;44.686;10.842;2023-09-12T07:18:16;23.05;;;20.42;;
23290;SDS011;11814;44.686;10.842;2023-09-12T07:20:42;19.65;;;17.50;;
23290;SDS011;11814;44.686;10.842;2023-09-12T07:23:08;26.75;;;19.27;;
23290;SDS011;11814;44.686;10.842;2023-09-12T07:25:40;28.13;;;18.52;;
23290;SDS011;11814;44.686;10.842;2023-09-12T07:28:07;31.02;;;18.23;;
23290;SDS011;11814;44.686;10.842;2023-09-12T07:30:33;30.52;;;17.73;;
23290;SDS011;11814;44.686;10.842;2023-09-12T07:32:59;24.83;;;17.42;;
23290;SDS011;11814;44.686;10.842;2023-09-12T07:35:25;20.80;;;16.98;;
23290;SDS011;11814;44.686;10.842;2023-09-12T07:37:50;18.20;;;14.98;;
23290;SDS011;11814;44.686;10.842;2023-09-12T07:40:16;20.50;;;14.98;;
23290;SDS011;11814;44.686;10.842;2023-09-12T07:42:42;17.88;;;15.98;;
23290;SDS011;11814;44.686;10.842;2023-09-12T07:45:08;18.00;;;15.18;;
23290;SDS011;11814;44.686;10.842;2023-09-12T07:47:34;18.67;;;14.60;;
23290;SDS011;11814;44.686;10.842;2023-09-12T07:50:00;18.50;;;14.48;;
23290;SDS011;11814;44.686;10.842;2023-09-12T07:52:26;18.20;;;14.50;;
23290;SDS011;11814;44.686;10.842;2023-09-12T07:54:52;20.02;;;14.52;;
23290;SDS011;11814;44.686;10.842;2023-09-12T07:57:22;16.75;;;13.57;;
23290;SDS011;11814;44.686;10.842;2023-09-12T07:59:48;16.50;;;13.45;;
23290;SDS011;11814;44.686;10.842;2023-09-12T08:02:14;14.80;;;10.93;;
23290;SDS011;11814;44.686;10.842;2023-09-12T08:04:39;13.27;;;10.93;;
23290;SDS011;11814;44.686;10.842;2023-09-12T08:07:05;14.38;;;10.57;;
23290;SDS011;11814;44.686;10.842;2023-09-12T08:12:19;14.82;;;12.68;;
23290;SDS011;11814;44.686;10.842;2023-09-12T08:14:46;16.08;;;13.00;;
23290;SDS011;11814;44.686;10.842;2023-09-12T08:17:12;15.10;;;12.77;;
23290;SDS011;11814;44.686;10.842;2023-09-12T08:19:38;16.58;;;11.63;;
23290;SDS011;11814;44.686;10.842;2023-09-12T08:22:05;14.13;;;11.30;;
23290;SDS011;11814;44.686;10.842;2023-09-12T08:24:31;13.20;;;11.07;;
23290;SDS011;11814;44.686;10.842;2023-09-12T08:26:57;18.38;;;11.20;;
23290;SDS011;11814;44.686;10.842;2023-09-12T08:29:22;15.75;;;12.93;;
23290;SDS011;11814;44.686;10.842;2023-09-12T08:31:49;14.80;;;12.13;;
23290;SDS011;11814;44.686;10.842;2023-09-12T08:34:15;16.17;;;12.48;;
23290;SDS011;11814;44.686;10.842;2023-09-12T08:36:40;17.20;;;12.82;;
23290;SDS011;11814;44.686;10.842;2023-09-12T08:39:06;15.55;;;13.18;;
23290;SDS011;11814;44.686;10.842;2023-09-12T08:41:36;14.30;;;12.82;;
23290;SDS011;11814;44.686;10.842;2023-09-12T08:44:02;17.02;;;12.57;;
23290;SDS011;11814;44.686;10.842;2023-09-12T08:46:30;15.32;;;12.52;;
23290;SDS011;11814;44.686;10.842;2023-09-12T08:48:56;17.63;;;12.73;;
23290;SDS011;11814;44.686;10.842;2023-09-12T08:51:23;18.20;;;12.07;;
23290;SDS011;11814;44.686;10.842;2023-09-12T08:53:52;16.60;;;13.10;;
23290;SDS011;11814;44.686;10.842;2023-09-12T08:56:18;18.10;;;12.07;;
23290;SDS011;11814;44.686;10.842;2023-09-12T08:58:44;15.45;;;12.10;;
23290;SDS011;11814;44.686;10.842;2023-09-12T09:01:13;18.58;;;13.60;;
23290;SDS011;11814;44.686;10.842;2023-09-12T09:03:41;17.23;;;15.15;;
23290;SDS011;11814;44.686;10.842;2023-09-12T09:06:11;21.10;;;14.57;;
23290;SDS011;11814;44.686;10.842;2023-09-12T09:08:38;15.25;;;13.48;;
23290;SDS011;11814;44.686;10.842;2023-09-12T09:11:04;16.63;;;14.13;;
23290;SDS011;11814;44.686;10.842;2023-09-12T09:13:33;17.17;;;14.35;;
23290;SDS011;11814;44.686;10.842;2023-09-12T09:16:14;15.48;;;13.85;;
23290;SDS011;11814;44.686;10.842;2023-09-12T09:21:25;18.75;;;14.80;;
23290;SDS011;11814;44.686;10.842;2023-09-12T09:23:53;17.27;;;13.48;;
23290;SDS011;11814;44.686;10.842;2023-09-12T09:26:19;16.60;;;12.48;;
23290;SDS011;11814;44.686;10.842;2023-09-12T09:28:45;17.48;;;13.30;;
23290;SDS011;11814;44.686;10.842;2023-09-12T09:31:12;17.42;;;12.85;;
23290;SDS011;11814;44.686;10.842;2023-09-12T09:33:41;17.67;;;14.43;;
23290;SDS011;11814;44.686;10.842;2023-09-12T09:36:13;15.82;;;13.00;;
23290;SDS011;11814;44.686;10.842;2023-09-12T09:38:40;16.52;;;12.15;;
23290;SDS011;11814;44.686;10.842;2023-09-12T09:41:06;14.13;;;11.40;;
23290;SDS011;11814;44.686;10.842;2023-09-12T09:43:32;15.23;;;12.52;;
23290;SDS011;11814;44.686;10.842;2023-09-12T09:45:58;17.80;;;12.50;;
23290;SDS011;11814;44.686;10.842;2023-09-12T09:48:25;17.38;;;12.73;;
23290;SDS011;11814;44.686;10.842;2023-09-12T09:50:52;16.00;;;11.43;;
23290;SDS011;11814;44.686;10.842;2023-09-12T09:53:25;13.75;;;10.65;;
23290;SDS011;11814;44.686;10.842;2023-09-12T09:55:51;13.40;;;11.40;;
23290;SDS011;11814;44.686;10.842;2023-09-12T09:58:17;13.18;;;10.63;;
23290;SDS011;11814;44.686;10.842;2023-09-12T10:00:43;13.07;;;10.82;;
23290;SDS011;11814;44.686;10.842;2023-09-12T10:03:09;16.98;;;10.13;;
23290;SDS011;11814;44.686;10.842;2023-09-12T10:05:37;13.35;;;10.00;;
23290;SDS011;11814;44.686;10.842;2023-09-12T10:08:03;11.50;;;8.40;;
23290;SDS011;11814;44.686;10.842;2023-09-12T10:10:34;10.10;;;7.65;;
23290;SDS011;11814;44.686;10.842;2023-09-12T10:13:01;11.40;;;8.20;;
23290;SDS011;11814;44.686;10.842;2023-09-12T10:15:29;17.17;;;8.50;;
23290;SDS011;11814;44.686;10.842;2023-09-12T10:17:57;14.05;;;7.90;;
23290;SDS011;11814;44.686;10.842;2023-09-12T10:20:28;13.15;;;9.98;;
23290;SDS011;11814;44.686;10.842;2023-09-12T10:23:12;15.45;;;8.82;;
23290;SDS011;11814;44.686;10.842;2023-09-12T10:25:44;12.00;;;8.38;;
23290;SDS011;11814;44.686;10.842;2023-09-12T10:28:10;19.00;;;8.32;;
23290;SDS011;11814;44.686;10.842;2023-09-12T10:30:37;8.43;;;7.28;;
23290;SDS011;11814;44.686;10.842;2023-09-12T10:33:03;9.23;;;6.82;;
23290;SDS011;11814;44.686;10.842;2023-09-12T10:35:31;8.98;;;7.05;;
23290;SDS011;11814;44.686;10.842;2023-09-12T10:37:59;11.32;;;6.22;;
23290;SDS011;11814;44.686;10.842;2023-09-12T10:40:36;11.38;;;7.22;;
23290;SDS011;11814;44.686;10.842;2023-09-12T10:43:02;14.18;;;6.80;;
23290;SDS011;11814;44.686;10.842;2023-09-12T10:45:33;11.82;;;6.88;;
23290;SDS011;11814;44.686;10.842;2023-09-12T10:48:02;14.02;;;7.82;;
23290;SDS011;11814;44.686;10.842;2023-09-12T10:50:28;17.27;;;8.63;;
23290;SDS011;11814;44.686;10.842;2023-09-12T10:52:54;8.95;;;6.75;;
23290;SDS011;11814;44.686;10.842;2023-09-12T10:55:20;10.27;;;7.00;;
23290;SDS011;11814;44.686;10.842;2023-09-12T10:57:59;13.35;;;8.07;;
23290;SDS011;11814;44.686;10.842;2023-09-12T11:00:29;11.52;;;7.47;;
23290;SDS011;11814;44.686;10.842;2023-09-12T11:02:57;8.60;;;7.07;;
23290;SDS011;11814;44.686;10.842;2023-09-12T11:07:57;18.33;;;8.52;;
23290;SDS011;11814;44.686;10.842;2023-09-12T11:10:24;15.43;;;8.93;;
23290;SDS011;11814;44.686;10.842;2023-09-12T11:12:54;12.88;;;8.73;;
23290;SDS011;11814;44.686;10.842;2023-09-12T11:15:22;10.80;;;8.15;;
23290;SDS011;11814;44.686;10.842;2023-09-12T11:18:11;11.60;;;9.18;;
23290;SDS011;11814;44.686;10.842;2023-09-12T11:20:52;14.60;;;9.52;;
23290;SDS011;11814;44.686;10.842;2023-09-12T11:23:25;14.57;;;9.00;;
23290;SDS011;11814;44.686;10.842;2023-09-12T11:26:06;8.20;;;7.00;;
23290;SDS011;11814;44.686;10.842;2023-09-12T11:28:34;11.15;;;8.07;;
23290;SDS011;11814;44.686;10.842;2023-09-12T11:30:59;14.05;;;8.70;;
23290;SDS011;11814;44.686;10.842;2023-09-12T11:33:25;13.63;;;8.02;;
23290;SDS011;11814;44.686;10.842;2023-09-12T11:35:54;14.73;;;8.07;;
23290;SDS011;11814;44.686;10.842;2023-09-12T11:38:26;12.95;;;9.70;;
23290;SDS011;11814;44.686;10.842;2023-09-12T11:40:54;11.02;;;7.68;;
23290;SDS011;11814;44.686;10.842;2023-09-12T11:43:24;13.55;;;7.53;;
23290;SDS011;11814;44.686;10.842;2023-09-12T11:45:52;14.73;;;7.82;;
23290;SDS011;11814;44.686;10.842;2023-09-12T11:48:19;12.10;;;7.82;;
23290;SDS011;11814;44.686;10.842;2023-09-12T11:50:55;11.48;;;8.23;;
23290;SDS011;11814;44.686;10.842;2023-09-12T11:53:22;12.82;;;7.43;;
23290;SDS011;11814;44.686;10.842;2023-09-12T11:55:51;13.10;;;8.55;;
23290;SDS011;11814;44.686;10.842;2023-09-12T11:58:19;10.50;;;7.93;;
23290;SDS011;11814;44.686;10.842;2023-09-12T12:03:13;11.55;;;8.05;;
23290;SDS011;11814;44.686;10.842;2023-09-12T12:05:39;13.90;;;8.30;;
23290;SDS011;11814;44.686;10.842;2023-09-12T12:08:06;14.35;;;8.00;;
23290;SDS011;11814;44.686;10.842;2023-09-12T12:10:33;12.60;;;7.15;;
23290;SDS011;11814;44.686;10.842;2023-09-12T12:12:59;16.45;;;7.85;;
23290;SDS011;11814;44.686;10.842;2023-09-12T12:15:25;13.45;;;6.90;;
23290;SDS011;11814;44.686;10.842;2023-09-12T12:17:56;8.80;;;6.90;;
23290;SDS011;11814;44.686;10.842;2023-09-12T12:20:22;13.23;;;7.22;;
23290;SDS011;11814;44.686;10.842;2023-09-12T12:22:48;12.10;;;7.07;;
23290;SDS011;11814;44.686;10.842;2023-09-12T12:25:16;8.35;;;7.00;;
23290;SDS011;11814;44.686;10.842;2023-09-12T12:27:42;12.82;;;7.20;;
23290;SDS011;11814;44.686;10.842;2023-09-12T12:30:09;11.50;;;7.13;;
23290;SDS011;11814;44.686;10.842;2023-09-12T12:32:40;10.30;;;6.75;;
23290;SDS011;11814;44.686;10.842;2023-09-12T12:35:07;10.73;;;7.32;;
23290;SDS011;11814;44.686;10.842;2023-09-12T12:37:35;8.13;;;7.28;;
23290;SDS011;11814;44.686;10.842;2023-09-12T12:40:01;12.73;;;7.25;;
23290;SDS011;11814;44.686;10.842;2023-09-12T12:42:38;12.38;;;6.75;;
23290;SDS011;11814;44.686;10.842;2023-09-12T12:45:17;9.88;;;6.90;;
23290;SDS011;11814;44.686;10.842;2023-09-12T12:47:44;8.43;;;6.63;;
23290;SDS011;11814;44.686;10.842;2023-09-12T12:50:14;10.38;;;6.35;;
23290;SDS011;11814;44.686;10.842;2023-09-12T12:52:45;9.35;;;6.70;;
23290;SDS011;11814;44.686;10.842;2023-09-12T12:55:12;15.88;;;7.10;;
23290;SDS011;11814;44.686;10.842;2023-09-12T12:57:39;9.73;;;5.82;;
23290;SDS011;11814;44.686;10.842;2023-09-12T13:00:10;6.85;;;5.30;;
23290;SDS011;11814;44.686;10.842;2023-09-12T13:02:38;10.43;;;5.88;;
23290;SDS011;11814;44.686;10.842;2023-09-12T13:05:06;8.85;;;5.72;;
23290;SDS011;11814;44.686;10.842;2023-09-12T13:07:44;6.93;;;5.32;;
23290;SDS011;11814;44.686;10.842;2023-09-12T13:10:10;9.73;;;6.25;;
23290;SDS011;11814;44.686;10.842;2023-09-12T13:12:36;9.45;;;5.85;;
23290;SDS011;11814;44.686;10.842;2023-09-12T13:15:03;10.25;;;5.68;;
23290;SDS011;11814;44.686;10.842;2023-09-12T13:17:29;8.13;;;5.85;;
23290;SDS011;11814;44.686;10.842;2023-09-12T13:19:55;10.30;;;5.78;;
23290;SDS011;11814;44.686;10.842;2023-09-12T13:22:21;6.97;;;5.80;;
23290;SDS011;11814;44.686;10.842;2023-09-12T13:24:46;9.70;;;5.72;;
23290;SDS011;11814;44.686;10.842;2023-09-12T13:27:12;12.02;;;6.13;;
23290;SDS011;11814;44.686;10.842;2023-09-12T13:29:38;11.07;;;5.40;;
23290;SDS011;11814;44.686;10.842;2023-09-12T13:32:04;16.63;;;5.65;;
23290;SDS011;11814;44.686;10.842;2023-09-12T13:34:30;7.47;;;5.10;;
23290;SDS011;11814;44.686;10.842;2023-09-12T13:36:56;11.85;;;6.40;;
23290;SDS011;11814;44.686;10.842;2023-09-12T13:39:23;9.45;;;6.38;;
23290;SDS011;11814;44.686;10.842;2023-09-12T13:41:49;8.38;;;6.05;;
23290;SDS011;11814;44.686;10.842;2023-09-12T13:44:14;8.98;;;5.70;;
23290;SDS011;11814;44.686;10.842;2023-09-12T13:46:41;12.57;;;5.93;;
23290;SDS011;11814;44.686;10.842;2023-09-12T13:49:11;10.68;;;6.47;;
23290;SDS011;11814;44.686;10.842;2023-09-12T13:51:36;12.60;;;6.03;;
23290;SDS011;11814;44.686;10.842;2023-09-12T13:54:03;11.68;;;5.93;;
23290;SDS011;11814;44.686;10.842;2023-09-12T13:56:29;11.13;;;5.88;;
23290;SDS011;11814;44.686;10.842;2023-09-12T13:58:54;6.57;;;5.78;;
23290;SDS011;11814;44.686;10.842;2023-09-12T14:01:20;10.60;;;5.50;;
23290;SDS011;11814;44.686;10.842;2023-09-12T14:03:48;13.35;;;6.10;;
23290;SDS011;11814;44.686;10.842;2023-09-12T14:06:13;6.50;;;5.40;;
23290;SDS011;11814;44.686;10.842;2023-09-12T14:08:39;8.60;;;6.13;;
23290;SDS011;11814;44.686;10.842;2023-09-12T14:11:05;9.00;;;5.30;;
23290;SDS011;11814;44.686;10.842;2023-09-12T14:13:30;11.55;;;5.47;;
23290;SDS011;11814;44.686;10.842;2023-09-12T14:15:56;8.63;;;5.22;;
23290;SDS011;11814;44.686;10.842;2023-09-12T14:18:22;9.10;;;5.53;;
23290;SDS011;11814;44.686;10.842;2023-09-12T14:20:47;6.80;;;5.25;;
23290;SDS011;11814;44.686;10.842;2023-09-12T14:23:13;7.40;;;5.45;;
23290;SDS011;11814;44.686;10.842;2023-09-12T14:25:39;9.05;;;5.80;;